Latest Weather Observations for Dunalley

IDT60901

Issued at 4:51 pm EST Friday 18 August 2017 (issued every 10 minutes, with the page automatically refreshed every 10 minutes)

About weather observations | Map of Hobart area stations | Latest observations for Hobart area | Other Formats
Station Details ID: 094254 Name: DUNALLEY (STROUD POINT) Lat: -42.90 Lon: 147.79 Height: 12.43 m
Data from the previous 72 hours. | See also: Recent months at Dunalley
Date/Time
EST
Temp
°C
App
Temp
°C
Dew
Point
°C
Rel
Hum
%
Delta-T
°C
Wind Press
QNH
hPa
Press
MSL
hPa
Rain since
9am
mm
Dir  Spd
km/h
Gust
km/h
Spd
kts
Gust
kts
18/04:39pm 6.9 -0.9 2.8 75 1.7 S 33 54 18 29 1008.9 1008.9 2.4
18/04:30pm 8.1 1.2 2.8 69 2.2 SSW 28 35 15 19 1008.4 1008.4 2.2
18/04:00pm 7.4 1.5 3.8 78 1.5 S 24 32 13 17 1007.8 1007.8 2.2
18/03:30pm 7.0 1.5 3.8 80 1.4 WSW 22 28 12 15 1007.0 1007.0 2.2
18/03:00pm 6.1 0.1 3.4 83 1.1 SSW 24 37 13 20 1006.6 1006.6 2.2
18/02:36pm 8.1 0.2 2.4 67 2.4 SSW 33 56 18 30 1005.8 1005.8 1.6
18/02:30pm 8.3 0.5 1.7 63 2.7 SSW 32 37 17 20 1005.5 1005.5 1.6
18/02:00pm 7.5 1.6 3.7 77 1.6 SSW 24 32 13 17 1005.1 1005.1 1.6
18/01:43pm 7.3 -0.2 3.2 75 1.7 S 32 56 17 30 1004.9 1004.9 1.6
18/01:30pm 7.4 1.4 3.6 77 1.6 S 24 32 13 17 1004.8 1004.8 1.6
18/01:00pm 7.2 -0.2 4.2 81 1.3 SSW 32 41 17 22 1004.4 1004.4 1.6
18/12:30pm 6.8 -1.9 3.9 82 1.2 SSW 39 46 21 25 1004.0 1004.0 1.6
18/12:00pm 6.1 -2.6 4.3 88 0.8 SW 39 52 21 28 1003.7 1003.7 1.6
18/11:30am 6.6 -0.8 3.9 83 1.2 SSW 32 48 17 26 1003.4 1003.4 0.2
18/11:00am 6.8 -2.0 3.8 81 1.3 SW 39 48 21 26 1003.0 1003.0 0.2
18/10:59am 6.8 -2.3 3.8 81 1.3 SW 41 50 22 27 1003.0 1003.0 0.2
18/10:30am 7.2 -1.8 4.3 82 1.3 SW 41 50 22 27 1002.3 1002.3 0.0
18/10:00am 7.7 -1.5 3.7 76 1.7 WSW 41 50 22 27 1001.7 1001.7 0.0
18/09:30am 6.8 -2.7 3.8 81 1.3 WSW 43 50 23 27 1001.2 1001.2 0.0
18/09:00am 7.9 -0.1 3.8 75 1.8 WSW 35 46 19 25 1000.6 1000.6 0.4
18/08:30am 7.5 0.8 3.7 77 1.6 W 28 32 15 17 1000.2 1000.2 0.4
18/08:00am 7.1 -0.9 3.9 80 1.4 W 35 41 19 22 999.9 999.9 0.4
18/07:30am 7.0 0.0 4.0 81 1.3 W 30 33 16 18 999.1 999.1 0.4
18/07:00am 6.6 1.1 3.9 83 1.2 W 22 28 12 15 998.7 998.7 0.4
18/06:30am 6.9 -0.5 4.0 82 1.2 W 32 39 17 21 998.0 998.0 0.4
18/06:00am 6.7 0.4 4.0 83 1.2 W 26 33 14 18 997.6 997.6 0.4
18/05:30am 6.8 1.2 3.4 79 1.4 W 22 30 12 16 997.3 997.3 0.0
18/05:00am 6.6 1.4 2.5 75 1.7 W 19 24 10 13 996.7 996.7 0.0
18/04:30am 6.5 2.0 2.2 74 1.8 W 15 19 8 10 996.4 996.4 0.0
18/04:00am 6.1 0.8 1.8 74 1.7 WNW 19 24 10 13 995.9 995.9 0.0
18/03:30am 6.1 0.8 2.0 75 1.7 WNW 19 24 10 13 995.6 995.6 0.0
18/03:00am 6.1 1.6 2.0 75 1.7 WNW 15 20 8 11 995.4 995.4 0.0
18/02:30am 5.7 1.2 2.0 77 1.5 WNW 15 19 8 10 995.2 995.2 0.0
18/02:00am 5.7 1.1 1.8 76 1.6 WNW 15 19 8 10 994.9 994.9 0.0
18/01:30am 6.2 0.7 2.1 75 1.7 WNW 20 28 11 15 994.6 994.6 0.0
18/01:00am 6.0 0.5 2.1 76 1.6 WNW 20 26 11 14 994.2 994.2 0.0
18/12:30am 6.1 0.8 2.0 75 1.7 WNW 19 24 10 13 994.0 994.0 0.0
18/12:00am 6.4 0.6 2.1 74 1.8 WNW 22 30 12 16 993.6 993.6 0.0
 
Date/Time
EST
Temp
°C
App
Temp
°C
Dew
Point
°C
Rel
Hum
%
Delta-T
°C
Wind Press
QNH
hPa
Press
MSL
hPa
Rain since
9am
mm
Dir  Spd
km/h
Gust
km/h
Spd
kts
Gust
kts
17/11:30pm 7.1 0.5 2.2 71 2.0 WNW 26 35 14 19 993.5 993.5 0.0
17/11:00pm 7.0 0.9 2.7 74 1.8 W 24 33 13 18 993.7 993.7 0.0
17/10:30pm 6.9 1.1 2.4 73 1.9 WNW 22 32 12 17 993.7 993.7 0.0
17/10:00pm 6.9 0.7 2.4 73 1.9 WNW 24 32 13 17 993.5 993.5 0.0
17/09:30pm 6.9 0.4 2.6 74 1.8 W 26 35 14 19 993.2 993.2 0.0
17/09:00pm 7.2 0.6 2.1 70 2.1 WNW 26 35 14 19 993.0 993.0 0.0
17/08:30pm 7.5 2.1 2.4 70 2.1 WNW 20 28 11 15 993.0 993.0 0.0
17/08:00pm 7.9 2.7 2.6 69 2.2 WNW 19 26 10 14 992.9 992.9 0.0
17/07:30pm 8.3 1.7 2.1 65 2.6 WNW 26 33 14 18 992.3 992.3 0.0
17/07:00pm 8.3 1.0 2.3 66 2.5 WNW 30 46 16 25 992.1 992.1 0.0
17/06:30pm 8.1 -0.2 1.9 65 2.6 WNW 35 50 19 27 991.4 991.4 0.0
17/06:00pm 8.4 2.2 2.2 65 2.6 WNW 24 39 13 21 991.1 991.1 0.0
17/05:30pm 8.7 3.3 2.5 65 2.6 WNW 20 28 11 15 990.8 990.8 0.0
17/05:00pm 9.3 3.5 2.4 62 2.9 WNW 22 32 12 17 990.4 990.4 0.0
17/04:30pm 9.4 2.8 2.0 60 3.1 NW 26 37 14 20 990.1 990.1 0.0
17/04:00pm 9.8 2.9 2.6 61 3.1 WNW 28 43 15 23 989.6 989.6 0.0
17/03:30pm 9.7 0.7 2.3 60 3.1 WNW 39 54 21 29 989.4 989.4 0.0
17/03:00pm 10.7 0.8 2.5 57 3.6 WNW 44 59 24 32 989.1 989.1 0.0
17/02:41pm 10.5 1.4 2.1 56 3.6 WNW 39 57 21 31 988.8 988.8 0.0
17/02:30pm 11.4 3.2 2.7 55 3.8 WNW 35 48 19 26 988.7 988.7 0.0
17/02:00pm 10.6 3.3 2.4 57 3.5 WNW 30 43 16 23 989.1 989.1 0.0
17/01:30pm 11.3 3.5 3.1 57 3.6 WNW 33 46 18 25 988.8 988.8 0.0
17/01:00pm 10.5 1.5 2.6 58 3.4 WNW 39 54 21 29 988.9 988.9 0.0
17/12:30pm 11.4 2.9 3.2 57 3.6 NW 37 50 20 27 988.6 988.6 0.0
17/12:00pm 10.7 2.1 2.8 58 3.5 WNW 37 56 20 30 988.9 988.9 0.0
17/11:30am 11.4 2.4 2.4 54 3.9 WNW 39 57 21 31 988.7 988.7 0.0
17/11:22am 11.2 2.6 2.5 55 3.7 WNW 37 57 20 31 988.7 988.7 0.0
17/11:00am 10.7 2.1 2.5 57 3.6 NW 37 52 20 28 988.7 988.7 0.0
17/10:45am 10.5 3.6 2.4 57 3.5 NW 28 48 15 26 988.7 988.7 0.0
17/10:30am 10.9 4.8 2.7 57 3.5 NW 24 39 13 21 989.2 989.2 0.0
17/10:00am 10.3 2.7 2.7 59 3.3 NW 32 46 17 25 988.9 988.9 0.0
17/09:30am 9.4 2.1 2.5 62 2.9 WNW 30 44 16 24 988.9 988.9 0.0
17/09:00am 9.0 0.8 2.6 64 2.7 NW 35 50 19 27 988.9 988.9 0.0
17/08:30am 8.1 -0.2 2.1 66 2.5 WNW 35 52 19 28 988.9 988.9 0.0
17/08:15am 8.1 0.8 2.4 67 2.4 WNW 30 50 16 27 988.8 988.8 0.0
17/08:00am 7.5 -0.2 2.2 69 2.2 WNW 32 43 17 23 988.7 988.7 0.0
17/07:31am 7.5 -0.4 2.4 70 2.1 WNW 33 54 18 29 988.4 988.4 0.0
17/07:30am 7.5 -0.8 2.4 70 2.1 WNW 35 54 19 29 988.3 988.3 0.0
17/07:03am 7.4 0.5 2.3 70 2.1 WNW 28 48 15 26 987.3 987.3 0.0
17/07:00am 7.3 0.3 2.2 70 2.1 WNW 28 37 15 20 987.3 987.3 0.0
17/06:42am 7.5 -0.2 2.2 69 2.2 WNW 32 52 17 28 987.2 987.2 0.0
17/06:30am 7.7 -1.3 2.2 68 2.3 WNW 39 57 21 31 987.0 987.0 0.0
17/06:00am 7.5 0.1 1.8 67 2.4 WNW 30 39 16 21 987.2 987.2 0.0
17/05:30am 7.5 0.2 2.4 70 2.1 WNW 30 41 16 22 987.3 987.3 0.0
17/05:29am 7.4 0.5 2.3 70 2.1 WNW 28 39 15 21 987.3 987.3 0.0
17/05:00am 7.0 3.4 2.7 74 1.8 NW 11 19 6 10 987.5 987.5 0.0
17/04:30am 7.8 2.7 3.1 72 2.0 NW 19 30 10 16 987.3 987.3 0.0
17/04:00am 8.1 0.2 2.4 67 2.4 WNW 33 46 18 25 987.6 987.6 0.0
17/03:30am 8.9 1.2 2.5 64 2.7 NW 32 46 17 25 987.2 987.2 0.0
17/03:24am 9.2 2.3 2.5 63 2.8 WNW 28 46 15 25 987.3 987.3 0.0
17/03:00am 9.3 4.1 2.2 61 3.0 NW 19 30 10 16 987.6 987.6 0.0
17/02:30am 8.9 4.1 2.5 64 2.7 NNW 17 24 9 13 987.2 987.2 0.0
17/02:00am 8.5 3.1 2.3 65 2.6 NW 20 32 11 17 987.6 987.6 0.0
17/01:30am 8.8 2.6 2.4 64 2.7 NW 24 35 13 19 987.4 987.4 0.0
17/01:00am 8.7 2.9 2.3 64 2.7 WNW 22 33 12 18 987.0 987.0 0.0
17/12:30am 9.1 1.5 2.7 64 2.7 WNW 32 43 17 23 986.9 986.9 0.0
17/12:00am 9.6 1.3 2.2 60 3.2 WNW 35 52 19 28 986.8 986.8 0.0
 
Date/Time
EST
Temp
°C
App
Temp
°C
Dew
Point
°C
Rel
Hum
%
Delta-T
°C
Wind Press
QNH
hPa
Press
MSL
hPa
Rain since
9am
mm
Dir  Spd
km/h
Gust
km/h
Spd
kts
Gust
kts
16/11:30pm 9.6 0.2 2.2 60 3.1 WNW 41 57 22 31 986.4 986.4 0.0
16/11:05pm 9.6 0.6 2.2 60 3.1 WNW 39 57 21 31 986.6 986.6 0.0
16/11:00pm 9.5 0.9 2.4 61 3.0 WNW 37 54 20 29 986.7 986.7 0.0
16/10:30pm 9.4 0.8 2.7 63 2.8 WNW 37 56 20 30 986.7 986.7 0.0
16/10:00pm 9.9 0.0 2.5 60 3.2 WNW 44 69 24 37 986.0 986.0 0.0
16/09:30pm 9.4 0.5 2.9 64 2.8 WNW 39 59 21 32 986.4 986.4 0.0
16/09:01pm 9.4 1.3 3.2 65 2.7 WNW 35 56 19 30 986.4 986.4 0.0
16/09:00pm 9.4 1.3 3.4 66 2.6 WNW 35 52 19 28 986.3 986.3 0.0
16/08:30pm 9.6 -0.2 3.1 64 2.8 WNW 44 65 24 35 986.2 986.2 0.0
16/08:17pm 10.0 1.1 3.1 62 3.0 WNW 39 57 21 31 986.0 986.0 0.0
16/08:00pm 10.3 2.1 2.7 59 3.3 WNW 35 50 19 27 985.6 985.6 0.0
16/07:30pm 10.2 3.0 3.0 61 3.1 WNW 30 46 16 25 985.2 985.2 0.0
16/07:05pm 10.2 3.4 3.0 61 3.1 WNW 28 48 15 26 985.1 985.1 0.0
16/07:00pm 9.9 3.8 3.0 62 3.0 WNW 24 37 13 20 985.0 985.0 0.0
16/06:30pm 9.7 4.1 3.4 65 2.7 WNW 22 33 12 18 984.6 984.6 0.0
16/06:00pm 10.2 3.1 3.7 64 2.9 WNW 30 39 16 21 984.1 984.1 0.0
16/05:30pm 10.1 2.4 3.4 63 2.9 WNW 33 46 18 25 983.6 983.6 0.0
16/05:00pm 10.6 4.2 3.4 61 3.2 WNW 26 39 14 21 983.0 983.0 0.0
16/04:30pm 11.4 3.9 3.7 59 3.4 WNW 32 44 17 24 982.4 982.4 0.0
16/04:16pm 11.6 3.6 3.9 59 3.4 WNW 35 54 19 29 982.7 982.7 0.0
16/04:00pm 11.8 3.8 3.6 57 3.7 WNW 35 52 19 28 982.6 982.6 0.0
16/03:30pm 12.2 4.1 3.2 54 4.0 WNW 35 59 19 32 982.1 982.1 0.0
16/03:00pm 12.7 3.5 3.4 53 4.2 WNW 41 65 22 35 981.6 981.6 0.0
16/02:30pm 12.9 4.9 3.6 53 4.2 WNW 35 56 19 30 981.0 981.0 0.0
16/02:00pm 13.6 4.5 3.9 52 4.5 WNW 41 61 22 33 980.7 980.7 0.0
16/01:30pm 13.4 5.9 3.2 50 4.6 WNW 32 48 17 26 981.0 981.0 0.0
16/01:00pm 13.6 8.1 4.2 53 4.4 WNW 22 41 12 22 981.1 981.1 0.0
16/12:30pm 13.9 6.9 3.9 51 4.5 NW 30 46 16 25 981.0 981.0 0.0
16/12:00pm 12.9 5.5 4.1 55 4.1 WNW 32 46 17 25 980.9 980.9 0.0
16/11:30am 13.8 7.6 4.1 52 4.4 WNW 26 35 14 19 981.2 981.2 0.0
16/11:00am 11.9 8.2 4.4 60 3.4 W 13 19 7 10 981.7 981.7 0.0
16/10:30am 12.0 7.4 3.5 56 3.8 WNW 17 26 9 14 981.8 981.8 0.0
16/10:00am 11.0 8.6 4.5 64 3.0 NW 6 9 3 5 981.8 981.8 0.0
16/09:30am 11.4 8.0 4.2 61 3.2 NW 11 15 6 8 981.9 981.9 0.0
16/09:00am 10.5 7.9 4.4 66 2.8 NNW 7 15 4 8 981.9 981.9 0.0
16/08:30am 10.2 6.9 4.8 69 2.4 NNW 11 13 6 7 982.1 982.1 0.0
16/08:00am 10.4 7.3 5.4 71 2.3 NNW 11 13 6 7 982.0 982.0 0.0
16/07:30am 8.5 5.1 4.1 74 1.9 N 11 15 6 8 982.3 982.3 0.0
16/07:00am 9.1 6.2 4.5 73 2.1 N 9 15 5 8 982.3 982.3 0.0
16/06:30am 9.2 5.9 4.6 73 2.0 N 11 17 6 9 982.4 982.4 0.0
16/06:00am 9.3 4.5 4.7 73 2.1 NNE 19 26 10 14 982.3 982.3 0.0
16/05:30am 9.5 4.5 4.7 72 2.1 NNE 20 26 11 14 982.6 982.6 0.0
16/05:00am 9.5 4.5 4.5 71 2.3 NNE 20 28 11 15 983.1 983.1 0.0
16/04:30am 9.7 5.1 3.9 67 2.5 N 17 22 9 12 983.5 983.5 0.0
16/04:00am 9.2 4.2 3.8 69 2.4 N 19 22 10 12 983.6 983.6 0.0
16/03:30am 9.3 4.6 3.3 66 2.6 N 17 20 9 11 983.8 983.8 0.0
16/03:00am 9.1 6.8 2.9 65 2.7 WNW 4 6 2 3 984.3 984.3 0.0
16/02:30am 8.8 6.2 3.0 67 2.5 WNW 6 6 3 3 985.0 985.0 0.0
16/02:00am 8.8 6.1 3.6 70 2.3 WNW 7 15 4 8 985.8 985.8 0.0
16/01:30am 9.6 6.9 2.7 62 2.9 WNW 6 13 3 7 986.2 986.2 0.0
16/01:00am 8.3 5.4 2.8 68 2.4 WNW 7 13 4 7 986.6 986.6 0.0
16/12:30am 9.4 6.2 2.9 64 2.8 WNW 9 13 5 7 986.9 986.9 0.0
16/12:00am 9.7 6.1 3.2 64 2.8 WNW 11 15 6 8 987.3 987.3 0.0
 
Date/Time
EST
Temp
°C
App
Temp
°C
Dew
Point
°C
Rel
Hum
%
Delta-T
°C
Wind Press
QNH
hPa
Press
MSL
hPa
Rain since
9am
mm
Dir  Spd
km/h
Gust
km/h
Spd
kts
Gust
kts
15/11:30pm 10.2 6.6 2.8 60 3.2 WNW 11 15 6 8 987.6 987.6 0.0
15/11:00pm 11.6 5.5 2.6 54 4.0 WNW 24 33 13 18 987.8 987.8 0.0
15/10:30pm 12.1 6.0 2.8 53 4.1 NW 24 33 13 18 988.3 988.3 0.0
15/10:00pm 12.5 6.9 3.7 55 4.0 NW 22 30 12 16 988.5 988.5 0.0
15/09:30pm 13.0 7.0 3.4 52 4.3 WNW 24 33 13 18 988.7 988.7 0.0
15/09:00pm 12.9 7.3 3.6 53 4.2 WNW 22 32 12 17 989.1 989.1 0.0
15/08:30pm 13.3 8.9 4.5 55 4.0 NW 17 28 9 15 988.9 988.9 0.0
15/08:00pm 13.6 9.0 5.5 58 3.9 NW 19 28 10 15 989.0 989.0 0.0
15/07:30pm 13.1 9.7 6.0 62 3.4 WNW 13 20 7 11 989.2 989.2 0.0
15/07:00pm 13.7 9.7 6.6 62 3.5 NW 17 24 9 13 989.2 989.2 0.0
15/06:30pm 13.7 11.0 7.5 66 3.0 WNW 11 28 6 15 989.0 989.0 0.0
15/06:00pm 14.3 11.3 7.6 64 3.3 NW 13 24 7 13 989.0 989.0 0.0
15/05:30pm 14.6 10.2 7.6 63 3.5 NNW 20 35 11 19 988.6 988.6 0.0
15/05:00pm 14.5 9.5 8.0 65 3.3 NNW 24 37 13 20 988.4 988.4 0.0

Latest Capital City Observations: Canberra | Sydney | Melbourne | Brisbane | Adelaide | Perth | Hobart | Darwin

Other Formats:

Comma delimited format used in spreadsheet applications
http://www.bom.gov.au/fwo/IDT60901/IDT60901.94951.axf

JavaScript Object Notation format (JSON) in row-major order
http://www.bom.gov.au/fwo/IDT60901/IDT60901.94951.json